Time;durP1;ratioP1;P1;durP2;ratioP2;P2;SDS_P1;SDS_P2;PMS_P1;PMS_P2;Temp;Humidity;BMP_temperature;BMP_pressure;BME280_temperature;BME280_humidity;BME280_pressure;Samples;Min_cycle;Max_cycle;Signal;HPM_P1;HPM_P2
2022/01/07 00:00:18;;;;;;;;;;;;;;;;;;6183755;23;20248;-75
2022/01/07 00:02:44;;;;;;;;;;;;;;;;;;6208500;23;19904;-74
2022/01/07 00:05:11;;;;;;;;;;;;;;;;;;6209330;23;19904;-77
2022/01/07 00:07:37;;;;;;;;;;;;;;;;;;6210942;23;19914;-77
2022/01/07 00:10:03;;;;;;;;;;;;;;;;;;6209634;23;19927;-77
2022/01/07 00:12:29;;;;;;;;;;;;;;;;;;6211151;23;19911;-78
2022/01/07 00:14:56;;;;;;;;;;;;;;;;;;6209870;23;19912;-75
2022/01/07 00:17:22;;;;;;;;;;;;;;;;;;6211251;23;19904;-75
2022/01/07 00:19:48;;;;;;;;;;;;;;;;;;6210081;23;19908;-76
2022/01/07 00:22:14;;;;;;;;;;;;;;;;;;6211109;23;19914;-75
2022/01/07 00:24:40;;;;;;;;;;;;;;;;;;6210339;23;19929;-76
2022/01/07 00:27:07;;;;;;;;;;;;;;;;;;6209849;23;19912;-76
2022/01/07 00:29:33;;;;;;;;;;;;;;;;;;6211234;23;19908;-77
2022/01/07 00:31:59;;;;;;;;;;;;;;;;;;6210308;23;19911;-75
2022/01/07 00:34:25;;;;;;;;;;;;;;;;;;6211111;23;19939;-75
2022/01/07 00:36:51;;;;;;;;;;;;;;;;;;6209873;23;19904;-75
2022/01/07 00:39:18;;;;;;;;;;;;;;;;;;6210927;23;19904;-75
2022/01/07 00:41:44;;;;;;;;;;;;;;;;;;6209226;23;19908;-76
2022/01/07 00:44:10;;;;;;;;;;;;;;;;;;6210287;23;19907;-76
2022/01/07 00:46:36;;;;;;;;;;;;;;;;;;6211067;23;19904;-74
2022/01/07 00:49:02;;;;;;;;;;;;;;;;;;6209705;22;19935;-76
2022/01/07 00:51:29;;;;;;;;;;;;;;;;;;6211760;23;19907;-77
2022/01/07 00:53:55;;;;;;;;;;;;;;;;;;6209467;23;19916;-75
2022/01/07 00:56:21;;;;;;;;;;;;;;;;;;6211083;23;19903;-75
2022/01/07 00:58:47;;;;;;;;;;;;;;;;;;6209575;23;19904;-77
2022/01/07 01:01:13;;;;;;;;;;;;;;;;;;6210473;23;19904;-76
2022/01/07 01:03:40;;;;;;;;;;;;;;;;;;6210630;23;19962;-76
2022/01/07 01:06:06;;;;;;;;;;;;;;;;;;6208728;23;20236;-75
2022/01/07 01:08:32;;;;;;;;;;;;;;;;;;6211377;23;19908;-74
2022/01/07 01:10:58;;;;;;;;;;;;;;;;;;6209607;23;19923;-76
2022/01/07 01:13:24;;;;;;;;;;;;;;;;;;6210728;23;19938;-76
2022/01/07 01:15:51;;;;;;;;;;;;;;;;;;6182947;23;20256;-74
2022/01/07 01:18:17;;;;;;;;;;;;;;;;;;6210318;23;19977;-77
2022/01/07 01:20:43;;;;;;;;;;;;;;;;;;6183053;23;19905;-76
2022/01/07 01:23:09;;;;;;;;;;;;;;;;;;6209888;23;19938;-76
2022/01/07 01:25:35;;;;;;;;;;;;;;;;;;6210004;23;20317;-76
2022/01/07 01:28:02;;;;;;;;;;;;;;;;;;6209457;23;19911;-75
2022/01/07 01:30:28;;;;;;;;;;;;;;;;;;6211028;23;19904;-78
2022/01/07 01:32:55;;;;;;;;;;;;;;;;;;6207285;23;20619;-75
2022/01/07 01:35:21;;;;;;;;;;;;;;;;;;6210395;23;19919;-79
2022/01/07 01:37:47;;;;;;;;;;;;;;;;;;6209652;23;20218;-75
2022/01/07 01:40:13;;;;;;;;;;;;;;;;;;6210628;23;19908;-75
2022/01/07 01:42:39;;;;;;;;;;;;;;;;;;6209490;23;19907;-76
2022/01/07 01:45:06;;;;;;;;;;;;;;;;;;6209849;23;20003;-76
2022/01/07 01:47:32;;;;;;;;;;;;;;;;;;6210335;23;19906;-75
2022/01/07 01:49:58;;;;;;;;;;;;;;;;;;6209063;22;19915;-75
2022/01/07 01:52:24;;;;;;;;;;;;;;;;;;6210622;23;19903;-76
2022/01/07 01:54:50;;;;;;;;;;;;;;;;;;6209188;23;19920;-76
2022/01/07 01:57:17;;;;;;;;;;;;;;;;;;6211078;23;19904;-75
2022/01/07 01:59:43;;;;;;;;;;;;;;;;;;6209600;23;19950;-77
2022/01/07 02:02:09;;;;;;;;;;;;;;;;;;6210304;23;19919;-78
2022/01/07 02:04:37;;;;;;;;;;;;;;;;;;6208722;23;20321;-78
2022/01/07 02:07:03;;;;;;;;;;;;;;;;;;6209151;23;19934;-77
2022/01/07 02:09:35;;;;;;;;;;;;;;;;;;6210697;23;19903;-78
2022/01/07 02:12:01;;;;;;;;;;;;;;;;;;6209214;23;19904;-78
2022/01/07 02:14:28;;;;;;;;;;;;;;;;;;6184154;23;19912;-78
2022/01/07 02:16:54;;;;;;;;;;;;;;;;;;6209877;23;19904;-77
2022/01/07 02:19:20;;;;;;;;;;;;;;;;;;6210547;23;19912;-75
2022/01/07 02:21:46;;;;;;;;;;;;;;;;;;6209037;23;20221;-76
2022/01/07 02:24:12;;;;;;;;;;;;;;;;;;6210529;23;19903;-75
2022/01/07 02:26:39;;;;;;;;;;;;;;;;;;6210547;23;19943;-75
2022/01/07 02:29:05;;;;;;;;;;;;;;;;;;6209727;23;19919;-78
2022/01/07 02:31:31;;;;;;;;;;;;;;;;;;6184071;23;19911;-76
2022/01/07 02:33:58;;;;;;;;;;;;;;;;;;6209243;23;19923;-75
2022/01/07 02:36:24;;;;;;;;;;;;;;;;;;6209741;23;19911;-76
2022/01/07 02:38:50;;;;;;;;;;;;;;;;;;6209114;23;20244;-77
2022/01/07 02:41:16;;;;;;;;;;;;;;;;;;6210677;23;19911;-75
2022/01/07 02:43:42;;;;;;;;;;;;;;;;;;6210494;23;19911;-77
2022/01/07 02:46:08;;;;;;;;;;;;;;;;;;6208910;23;19911;-77
2022/01/07 02:48:35;;;;;;;;;;;;;;;;;;6210327;23;19912;-76
2022/01/07 02:51:01;;;;;;;;;;;;;;;;;;6209228;23;19908;-77
2022/01/07 02:53:27;;;;;;;;;;;;;;;;;;6184101;23;19915;-77
2022/01/07 02:55:53;;;;;;;;;;;;;;;;;;6209155;23;19927;-77
2022/01/07 02:58:19;;;;;;;;;;;;;;;;;;6210737;23;19911;-75
2022/01/07 03:00:45;;;;;;;;;;;;;;;;;;6209386;23;20244;-75
2022/01/07 03:03:12;;;;;;;;;;;;;;;;;;6211665;23;19904;-76
2022/01/07 03:05:41;;;;;;;;;;;;;;;;;;6185720;23;19904;-74
2022/01/07 03:08:07;;;;;;;;;;;;;;;;;;6211919;23;20244;-75
2022/01/07 03:10:33;;;;;;;;;;;;;;;;;;6212500;23;19904;-76
2022/01/07 03:13:00;;;;;;;;;;;;;;;;;;6209961;23;20320;-75
2022/01/07 03:15:26;;;;;;;;;;;;;;;;;;6211890;23;19916;-78
2022/01/07 03:17:52;;;;;;;;;;;;;;;;;;6210487;23;19911;-77
2022/01/07 03:20:19;;;;;;;;;;;;;;;;;;6211906;23;19903;-76
2022/01/07 03:22:45;;;;;;;;;;;;;;;;;;6183366;23;19908;-76
2022/01/07 03:25:11;;;;;;;;;;;;;;;;;;6210776;23;19903;-76
2022/01/07 03:27:38;;;;;;;;;;;;;;;;;;6210315;23;19962;-75
2022/01/07 03:30:04;;;;;;;;;;;;;;;;;;6209799;23;19958;-76
2022/01/07 03:32:30;;;;;;;;;;;;;;;;;;6211761;23;20253;-76
2022/01/07 03:34:56;;;;;;;;;;;;;;;;;;6210183;23;19916;-75
2022/01/07 03:37:22;;;;;;;;;;;;;;;;;;6211676;23;20332;-76
2022/01/07 03:39:49;;;;;;;;;;;;;;;;;;6183668;23;19904;-74
2022/01/07 03:42:15;;;;;;;;;;;;;;;;;;6211755;23;19915;-77
2022/01/07 03:44:41;;;;;;;;;;;;;;;;;;6211784;23;19908;-76
2022/01/07 03:47:07;;;;;;;;;;;;;;;;;;6212173;23;19907;-75
2022/01/07 03:49:33;;;;;;;;;;;;;;;;;;6215369;23;20002;-76
2022/01/07 03:51:59;;;;;;;;;;;;;;;;;;6187000;23;19907;-74
2022/01/07 03:54:26;;;;;;;;;;;;;;;;;;6214969;23;19912;-76
2022/01/07 03:56:52;;;;;;;;;;;;;;;;;;6215482;23;19927;-76
2022/01/07 03:59:18;;;;;;;;;;;;;;;;;;6227211;23;19904;-75
2022/01/07 04:01:44;;;;;;;;;;;;;;;;;;6220303;23;19904;-75
2022/01/07 04:04:10;;;;;;;;;;;;;;;;;;6187414;23;19908;-75
2022/01/07 04:06:37;;;;;;;;;;;;;;;;;;6211515;23;19908;-73
2022/01/07 04:09:03;;;;;;;;;;;;;;;;;;6211176;23;19912;-74
2022/01/07 04:11:29;;;;;;;;;;;;;;;;;;6212611;23;20051;-75
2022/01/07 04:13:55;;;;;;;;;;;;;;;;;;6212190;23;19908;-75
2022/01/07 04:16:22;;;;;;;;;;;;;;;;;;6186674;23;19910;-75
2022/01/07 04:18:49;;;;;;;;;;;;;;;;;;6210918;23;20382;-76
2022/01/07 04:21:15;;;;;;;;;;;;;;;;;;6210897;23;19934;-76
2022/01/07 04:23:41;;;;;;;;;;;;;;;;;;6210656;23;19988;-76
2022/01/07 04:26:07;;;;;;;;;;;;;;;;;;6209410;23;19923;-74
2022/01/07 04:28:33;;;;;;;;;;;;;;;;;;6211418;23;19911;-75
2022/01/07 04:31:00;;;;;;;;;;;;;;;;;;6210321;23;20256;-76
2022/01/07 04:33:27;;;;;;;;;;;;;;;;;;6211180;23;19912;-74
2022/01/07 04:35:54;;;;;;;;;;;;;;;;;;6209665;23;19904;-75
2022/01/07 04:38:20;;;;;;;;;;;;;;;;;;6210151;23;19950;-74
2022/01/07 04:40:46;;;;;;;;;;;;;;;;;;6209936;23;19904;-75
2022/01/07 04:43:12;;;;;;;;;;;;;;;;;;6210789;23;19908;-74
2022/01/07 04:45:38;;;;;;;;;;;;;;;;;;6184658;23;19911;-77
2022/01/07 04:48:05;;;;;;;;;;;;;;;;;;6209351;23;19958;-76
2022/01/07 04:50:31;;;;;;;;;;;;;;;;;;6212650;23;20629;-76
2022/01/07 04:52:57;;;;;;;;;;;;;;;;;;6212526;23;19904;-75
2022/01/07 04:55:23;;;;;;;;;;;;;;;;;;6240665;23;20324;-76
2022/01/07 04:57:49;;;;;;;;;;;;;;;;;;6239552;23;19904;-77
2022/01/07 05:00:16;;;;;;;;;;;;;;;;;;6241297;23;19914;-76
2022/01/07 05:02:42;;;;;;;;;;;;;;;;;;6241714;23;19910;-75
2022/01/07 05:05:08;;;;;;;;;;;;;;;;;;6240188;23;19914;-76
2022/01/07 05:07:36;;;;;;;;;;;;;;;;;;6240903;22;20225;-76
2022/01/07 05:10:02;;;;;;;;;;;;;;;;;;6239522;23;20224;-77
2022/01/07 05:12:29;;;;;;;;;;;;;;;;;;6240481;23;19915;-76
2022/01/07 05:14:55;;;;;;;;;;;;;;;;;;6239193;23;19915;-77
2022/01/07 05:17:22;;;;;;;;;;;;;;;;;;6212825;23;19908;-77
2022/01/07 05:19:48;;;;;;;;;;;;;;;;;;6237650;23;19938;-76
2022/01/07 05:22:14;;;;;;;;;;;;;;;;;;6239055;23;20224;-77
2022/01/07 05:24:40;;;;;;;;;;;;;;;;;;6239200;23;19908;-76
2022/01/07 05:27:06;;;;;;;;;;;;;;;;;;6238001;23;19908;-77
2022/01/07 05:29:35;;;;;;;;;;;;;;;;;;6240250;23;19904;-77
2022/01/07 05:32:01;;;;;;;;;;;;;;;;;;6238452;23;20248;-76
2022/01/07 05:34:27;;;;;;;;;;;;;;;;;;6239625;23;19919;-77
2022/01/07 05:36:53;;;;;;;;;;;;;;;;;;6238554;23;19958;-77
2022/01/07 05:39:19;;;;;;;;;;;;;;;;;;6239346;23;19903;-78
2022/01/07 05:41:46;;;;;;;;;;;;;;;;;;6238194;23;19904;-75
2022/01/07 05:44:12;;;;;;;;;;;;;;;;;;6239073;23;19903;-77
2022/01/07 05:46:38;;;;;;;;;;;;;;;;;;6238909;23;19914;-77
2022/01/07 05:49:04;;;;;;;;;;;;;;;;;;6238329;23;20459;-76
2022/01/07 05:51:30;;;;;;;;;;;;;;;;;;6239366;23;19908;-77
2022/01/07 05:53:57;;;;;;;;;;;;;;;;;;6239065;23;19911;-77
2022/01/07 05:56:23;;;;;;;;;;;;;;;;;;6239840;23;19903;-77
2022/01/07 05:58:49;;;;;;;;;;;;;;;;;;6238428;23;19903;-75
2022/01/07 06:01:15;;;;;;;;;;;;;;;;;;6239783;23;19927;-77
2022/01/07 06:03:41;;;;;;;;;;;;;;;;;;6239470;23;19908;-75
2022/01/07 06:06:08;;;;;;;;;;;;;;;;;;6238309;22;19903;-76
2022/01/07 06:08:34;;;;;;;;;;;;;;;;;;6239790;23;19903;-77
2022/01/07 06:11:00;;;;;;;;;;;;;;;;;;6238645;23;19915;-76
2022/01/07 06:13:26;;;;;;;;;;;;;;;;;;6239853;23;20243;-77
2022/01/07 06:15:52;;;;;;;;;;;;;;;;;;6239455;23;19914;-77
2022/01/07 06:18:19;;;;;;;;;;;;;;;;;;6240475;23;20347;-78
2022/01/07 06:20:45;;;;;;;;;;;;;;;;;;6212103;23;19908;-75
2022/01/07 06:23:11;;;;;;;;;;;;;;;;;;6240183;23;19904;-76
2022/01/07 06:25:37;;;;;;;;;;;;;;;;;;6239916;23;19903;-76
2022/01/07 06:28:03;;;;;;;;;;;;;;;;;;6211985;23;19908;-76
2022/01/07 06:30:29;;;;;;;;;;;;;;;;;;6240720;23;19911;-77
2022/01/07 06:32:56;;;;;;;;;;;;;;;;;;6239427;23;19903;-76
2022/01/07 06:35:22;;;;;;;;;;;;;;;;;;6213451;23;20225;-79
2022/01/07 06:37:48;;;;;;;;;;;;;;;;;;6239184;23;19926;-78
2022/01/07 06:40:14;;;;;;;;;;;;;;;;;;6213760;23;19954;-77
2022/01/07 06:42:40;;;;;;;;;;;;;;;;;;6240747;23;19903;-76
2022/01/07 06:45:07;;;;;;;;;;;;;;;;;;6239183;23;19907;-76
2022/01/07 06:47:33;;;;;;;;;;;;;;;;;;6240887;23;19953;-77
2022/01/07 06:49:59;;;;;;;;;;;;;;;;;;6239143;23;19922;-75
2022/01/07 06:52:25;;;;;;;;;;;;;;;;;;6240533;23;19914;-77
2022/01/07 06:57:57;;;;;;;;;;;;;;;;;;6182417;23;19915;-77
2022/01/07 07:00:24;;;;;;;;;;;;;;;;;;6234972;23;19903;-77
2022/01/07 07:02:50;;;;;;;;;;;;;;;;;;6239797;23;19912;-76
2022/01/07 07:05:17;;;;;;;;;;;;;;;;;;6240542;22;20324;-79
2022/01/07 07:07:44;;;;;;;;;;;;;;;;;;6240584;23;19903;-78
2022/01/07 07:10:10;;;;;;;;;;;;;;;;;;6239058;23;20521;-77
2022/01/07 07:12:36;;;;;;;;;;;;;;;;;;6240354;23;19908;-76
2022/01/07 07:15:02;;;;;;;;;;;;;;;;;;6239567;23;19911;-78
2022/01/07 07:17:28;;;;;;;;;;;;;;;;;;6240603;23;19907;-77
2022/01/07 07:19:55;;;;;;;;;;;;;;;;;;6238879;23;19914;-78
2022/01/07 07:22:21;;;;;;;;;;;;;;;;;;6213029;23;19908;-78
2022/01/07 07:24:47;;;;;;;;;;;;;;;;;;6237749;23;19908;-78
2022/01/07 07:27:13;;;;;;;;;;;;;;;;;;6238804;23;20217;-77
2022/01/07 07:29:39;;;;;;;;;;;;;;;;;;6238744;23;19907;-76
2022/01/07 07:32:08;;;;;;;;;;;;;;;;;;6238818;23;20315;-78
2022/01/07 07:37:13;;;;;;;;;;;;;;;;;;6238613;23;21349;-76
2022/01/07 07:39:39;;;;;;;;;;;;;;;;;;6239567;23;19908;-76
2022/01/07 07:42:05;;;;;;;;;;;;;;;;;;6239369;23;20288;-75
2022/01/07 07:44:32;;;;;;;;;;;;;;;;;;6240391;23;19977;-75
2022/01/07 07:46:58;;;;;;;;;;;;;;;;;;6212963;23;19958;-77
2022/01/07 07:49:24;;;;;;;;;;;;;;;;;;6239175;23;20295;-76
2022/01/07 07:51:51;;;;;;;;;;;;;;;;;;6240045;23;19907;-77
2022/01/07 07:54:18;;;;;;;;;;;;;;;;;;6239185;23;19915;-76
2022/01/07 07:56:44;;;;;;;;;;;;;;;;;;6239143;23;19911;-77
2022/01/07 07:59:10;;;;;;;;;;;;;;;;;;6240261;23;19907;-76
2022/01/07 08:01:36;;;;;;;;;;;;;;;;;;6240528;23;19953;-77
2022/01/07 08:04:03;;;;;;;;;;;;;;;;;;6239627;23;20427;-76
2022/01/07 08:06:30;;;;;;;;;;;;;;;;;;6241028;22;19907;-76
2022/01/07 08:08:56;;;;;;;;;;;;;;;;;;6239973;23;20387;-77
2022/01/07 08:11:27;;;;;;;;;;;;;;;;;;6241350;23;19908;-77
2022/01/07 08:16:38;;;;;;;;;;;;;;;;;;6240498;23;19907;-76
2022/01/07 08:19:05;;;;;;;;;;;;;;;;;;6239826;23;19912;-76
2022/01/07 08:21:31;;;;;;;;;;;;;;;;;;6241256;23;20312;-75
2022/01/07 08:23:59;;;;;;;;;;;;;;;;;;6239233;23;19961;-77
2022/01/07 08:26:25;;;;;;;;;;;;;;;;;;6240952;23;20257;-78
2022/01/07 08:28:56;;;;;;;;;;;;;;;;;;6240752;23;19977;-75
2022/01/07 08:36:42;;;;;;;;;;;;;;;;;;6240703;23;19911;-77
2022/01/07 08:39:08;;;;;;;;;;;;;;;;;;6239490;23;19962;-77
2022/01/07 08:41:35;;;;;;;;;;;;;;;;;;6240726;23;19933;-78
2022/01/07 08:44:01;;;;;;;;;;;;;;;;;;6240936;23;19961;-75
2022/01/07 08:46:27;;;;;;;;;;;;;;;;;;6241561;23;20316;-77
2022/01/07 08:48:53;;;;;;;;;;;;;;;;;;6239653;23;19922;-76
2022/01/07 08:51:19;;;;;;;;;;;;;;;;;;6241054;23;19912;-76
2022/01/07 08:53:46;;;;;;;;;;;;;;;;;;6240080;23;19912;-79
2022/01/07 08:56:12;;;;;;;;;;;;;;;;;;6239703;23;19903;-76
2022/01/07 08:58:38;;;;;;;;;;;;;;;;;;6240265;23;19908;-77
2022/01/07 09:01:04;;;;;;;;;;;;;;;;;;6239148;23;20551;-77
2022/01/07 09:03:30;;;;;;;;;;;;;;;;;;6239892;23;19908;-77
2022/01/07 09:05:57;;;;;;;;;;;;;;;;;;6238264;22;20248;-77
2022/01/07 09:08:23;;;;;;;;;;;;;;;;;;6239934;23;19914;-76
2022/01/07 09:10:49;;;;;;;;;;;;;;;;;;6238757;23;19903;-74
2022/01/07 09:13:15;;;;;;;;;;;;;;;;;;6240106;23;19907;-76
2022/01/07 09:15:41;;;;;;;;;;;;;;;;;;6213587;23;20302;-75
2022/01/07 09:18:11;;;;;;;;;;;;;;;;;;6239849;23;19903;-77
2022/01/07 09:20:38;;;;;;;;;;;;;;;;;;6239383;23;20244;-77
2022/01/07 09:23:04;;;;;;;;;;;;;;;;;;6238785;23;19972;-76
2022/01/07 09:25:30;;;;;;;;;;;;;;;;;;6213053;23;20394;-77
2022/01/07 09:27:56;;;;;;;;;;;;;;;;;;6238542;23;19907;-77
2022/01/07 09:30:22;;;;;;;;;;;;;;;;;;6213269;23;19918;-76
2022/01/07 09:32:49;;;;;;;;;;;;;;;;;;6237954;23;19903;-75
2022/01/07 09:35:16;;;;;;;;;;;;;;;;;;6238825;23;19942;-76
2022/01/07 09:37:42;;;;;;;;;;;;;;;;;;6239799;23;19908;-76
2022/01/07 09:40:08;;;;;;;;;;;;;;;;;;6211208;23;19907;-77
2022/01/07 09:42:34;;;;;;;;;;;;;;;;;;6240019;23;19927;-79
2022/01/07 09:45:00;;;;;;;;;;;;;;;;;;6239996;23;19915;-77
2022/01/07 09:47:27;;;;;;;;;;;;;;;;;;6238519;23;20522;-77
2022/01/07 09:49:53;;;;;;;;;;;;;;;;;;6210474;23;19919;-76
2022/01/07 09:52:19;;;;;;;;;;;;;;;;;;6237076;23;19914;-77
2022/01/07 09:54:45;;;;;;;;;;;;;;;;;;6208173;23;20455;-77
2022/01/07 09:57:11;;;;;;;;;;;;;;;;;;6238906;23;19911;-77
2022/01/07 09:59:38;;;;;;;;;;;;;;;;;;6211782;23;20328;-76
2022/01/07 10:02:04;;;;;;;;;;;;;;;;;;6237997;23;20431;-76
2022/01/07 10:04:33;;;;;;;;;;;;;;;;;;6238442;23;19908;-76
2022/01/07 10:06:59;;;;;;;;;;;;;;;;;;6236302;22;20386;-77
2022/01/07 10:09:25;;;;;;;;;;;;;;;;;;6239020;23;19908;-76
2022/01/07 10:11:51;;;;;;;;;;;;;;;;;;6236960;23;19903;-77
2022/01/07 10:14:18;;;;;;;;;;;;;;;;;;6239003;23;19919;-78
2022/01/07 10:16:44;;;;;;;;;;;;;;;;;;6226391;23;19907;-77
2022/01/07 10:19:13;;;;;;;;;;;;;;;;;;6238804;23;20335;-78
2022/01/07 10:21:39;;;;;;;;;;;;;;;;;;6239977;23;19903;-77
2022/01/07 10:24:06;;;;;;;;;;;;;;;;;;6236628;23;19915;-75
2022/01/07 10:26:32;;;;;;;;;;;;;;;;;;6225815;23;19915;-76
2022/01/07 10:28:59;;;;;;;;;;;;;;;;;;6236916;23;19950;-79
2022/01/07 10:31:25;;;;;;;;;;;;;;;;;;6239436;23;19908;-76
2022/01/07 10:33:53;;;;;;;;;;;;;;;;;;6237931;23;19903;-77
2022/01/07 10:36:19;;;;;;;;;;;;;;;;;;6239976;23;19915;-77
2022/01/07 10:38:45;;;;;;;;;;;;;;;;;;6239214;23;19915;-78
2022/01/07 10:41:12;;;;;;;;;;;;;;;;;;6238850;23;19930;-77
2022/01/07 10:43:38;;;;;;;;;;;;;;;;;;6239745;23;19910;-78
2022/01/07 10:46:04;;;;;;;;;;;;;;;;;;6238585;23;19903;-77
2022/01/07 10:48:30;;;;;;;;;;;;;;;;;;6212870;22;19907;-80
2022/01/07 10:50:56;;;;;;;;;;;;;;;;;;6238804;23;19904;-80
2022/01/07 10:53:23;;;;;;;;;;;;;;;;;;6240605;23;19911;-76
2022/01/07 10:55:49;;;;;;;;;;;;;;;;;;6236568;23;19911;-75
2022/01/07 10:58:15;;;;;;;;;;;;;;;;;;6237869;23;19915;-77
2022/01/07 11:00:41;;;;;;;;;;;;;;;;;;6211866;23;19911;-77
2022/01/07 11:03:07;;;;;;;;;;;;;;;;;;6237422;23;19910;-77
2022/01/07 11:05:34;;;;;;;;;;;;;;;;;;6238976;22;19962;-74
2022/01/07 11:08:00;;;;;;;;;;;;;;;;;;6237535;23;19907;-77
2022/01/07 11:10:26;;;;;;;;;;;;;;;;;;6238233;23;19903;-77
2022/01/07 11:12:52;;;;;;;;;;;;;;;;;;6235003;23;19911;-76
2022/01/07 11:15:18;;;;;;;;;;;;;;;;;;6238442;23;19916;-78
2022/01/07 11:17:45;;;;;;;;;;;;;;;;;;6187595;23;20326;-79
2022/01/07 11:20:12;;;;;;;;;;;;;;;;;;6237896;23;20333;-77
2022/01/07 11:22:40;;;;;;;;;;;;;;;;;;6239560;23;19908;-76
2022/01/07 11:25:16;;;;;;;;;;;;;;;;;;6213173;23;19930;-80
2022/01/07 11:27:42;;;;;;;;;;;;;;;;;;6242339;23;19908;-76
2022/01/07 11:30:10;;;;;;;;;;;;;;;;;;6214026;23;19903;-78
2022/01/07 11:32:36;;;;;;;;;;;;;;;;;;6241375;23;19961;-77
2022/01/07 11:35:02;;;;;;;;;;;;;;;;;;6211665;23;19916;-78
2022/01/07 11:37:28;;;;;;;;;;;;;;;;;;6240225;23;19904;-77
2022/01/07 11:39:54;;;;;;;;;;;;;;;;;;6212845;23;19970;-78
2022/01/07 11:42:21;;;;;;;;;;;;;;;;;;6240903;23;20351;-79
2022/01/07 11:44:47;;;;;;;;;;;;;;;;;;6239809;23;19914;-77
2022/01/07 11:47:13;;;;;;;;;;;;;;;;;;6241344;23;19907;-77
2022/01/07 11:49:39;;;;;;;;;;;;;;;;;;6215047;23;19969;-82
2022/01/07 11:52:05;;;;;;;;;;;;;;;;;;6213568;23;19911;-76
2022/01/07 11:54:32;;;;;;;;;;;;;;;;;;6241107;23;19927;-76
2022/01/07 11:56:58;;;;;;;;;;;;;;;;;;6240747;23;20228;-77
2022/01/07 11:59:25;;;;;;;;;;;;;;;;;;6242623;23;19904;-77
2022/01/07 12:01:51;;;;;;;;;;;;;;;;;;6214929;23;19910;-77
2022/01/07 12:04:21;;;;;;;;;;;;;;;;;;6241855;23;19908;-76
2022/01/07 12:06:47;;;;;;;;;;;;;;;;;;6228993;23;19904;-77
2022/01/07 12:09:19;;;;;;;;;;;;;;;;;;6242267;23;19907;-76
2022/01/07 12:11:45;;;;;;;;;;;;;;;;;;6242696;23;20299;-75
2022/01/07 12:14:13;;;;;;;;;;;;;;;;;;6243568;23;19911;-81
2022/01/07 12:16:39;;;;;;;;;;;;;;;;;;6219375;23;19911;-80
2022/01/07 12:19:05;;;;;;;;;;;;;;;;;;6220942;23;20000;-78
2022/01/07 12:21:31;;;;;;;;;;;;;;;;;;6221942;23;19914;-79
2022/01/07 12:23:58;;;;;;;;;;;;;;;;;;6253818;23;19908;-80
2022/01/07 12:26:24;;;;;;;;;;;;;;;;;;6256973;23;19914;-80
2022/01/07 12:28:50;;;;;;;;;;;;;;;;;;6254905;23;19915;-78
2022/01/07 12:31:16;;;;;;;;;;;;;;;;;;6250390;23;20022;-78
2022/01/07 12:33:42;;;;;;;;;;;;;;;;;;6221443;23;19914;-77
2022/01/07 12:36:09;;;;;;;;;;;;;;;;;;6250132;23;20773;-80
2022/01/07 12:38:36;;;;;;;;;;;;;;;;;;6246751;23;19919;-79
2022/01/07 12:41:03;;;;;;;;;;;;;;;;;;6248109;23;19907;-78
2022/01/07 12:43:29;;;;;;;;;;;;;;;;;;6246300;23;19911;-79
2022/01/07 12:45:55;;;;;;;;;;;;;;;;;;6240095;23;20581;-78
2022/01/07 12:48:21;;;;;;;;;;;;;;;;;;6239073;23;19938;-78
2022/01/07 12:50:47;;;;;;;;;;;;;;;;;;6237558;23;19903;-78
2022/01/07 12:53:14;;;;;;;;;;;;;;;;;;6239476;23;20308;-79
2022/01/07 12:55:40;;;;;;;;;;;;;;;;;;6238118;23;19922;-78
2022/01/07 12:58:06;;;;;;;;;;;;;;;;;;6212159;23;20331;-79
2022/01/07 13:00:32;;;;;;;;;;;;;;;;;;6213266;23;20026;-78
2022/01/07 13:02:59;;;;;;;;;;;;;;;;;;6239892;23;19911;-79
2022/01/07 13:05:25;;;;;;;;;;;;;;;;;;6214888;23;19908;-79
2022/01/07 13:07:51;;;;;;;;;;;;;;;;;;6240434;23;20243;-77
2022/01/07 13:10:20;;;;;;;;;;;;;;;;;;6241629;23;19910;-80
2022/01/07 13:12:46;;;;;;;;;;;;;;;;;;6240395;23;19950;-78
2022/01/07 13:15:12;;;;;;;;;;;;;;;;;;6239751;23;19916;-78
2022/01/07 13:17:38;;;;;;;;;;;;;;;;;;6239778;23;20248;-78
2022/01/07 13:20:04;;;;;;;;;;;;;;;;;;6240844;23;19904;-80
2022/01/07 13:22:31;;;;;;;;;;;;;;;;;;6242150;23;19908;-81
2022/01/07 13:24:57;;;;;;;;;;;;;;;;;;6237251;23;20511;-78
2022/01/07 13:27:23;;;;;;;;;;;;;;;;;;6212036;23;19912;-80
2022/01/07 13:29:51;;;;;;;;;;;;;;;;;;6238176;23;19915;-80
2022/01/07 13:32:17;;;;;;;;;;;;;;;;;;6211967;23;20255;-79
2022/01/07 13:34:43;;;;;;;;;;;;;;;;;;6239254;23;19922;-80
2022/01/07 13:37:10;;;;;;;;;;;;;;;;;;6210796;23;19910;-79
2022/01/07 13:39:36;;;;;;;;;;;;;;;;;;6238990;23;19903;-80
2022/01/07 13:42:03;;;;;;;;;;;;;;;;;;6238536;23;19914;-79
2022/01/07 13:44:29;;;;;;;;;;;;;;;;;;6239294;23;19966;-79
2022/01/07 13:46:56;;;;;;;;;;;;;;;;;;6236535;23;19908;-79
2022/01/07 13:49:22;;;;;;;;;;;;;;;;;;6238400;22;19919;-80
2022/01/07 13:51:48;;;;;;;;;;;;;;;;;;6236786;23;19908;-80
2022/01/07 13:54:14;;;;;;;;;;;;;;;;;;6237811;23;20217;-81
2022/01/07 13:56:40;;;;;;;;;;;;;;;;;;6238033;23;20251;-80
2022/01/07 13:59:07;;;;;;;;;;;;;;;;;;6236924;23;20332;-80
2022/01/07 14:01:33;;;;;;;;;;;;;;;;;;6238260;23;20316;-78
2022/01/07 14:04:00;;;;;;;;;;;;;;;;;;6236606;23;20244;-78
2022/01/07 14:06:26;;;;;;;;;;;;;;;;;;6237704;22;19914;-79
2022/01/07 14:08:52;;;;;;;;;;;;;;;;;;6236999;23;19910;-77
2022/01/07 14:11:18;;;;;;;;;;;;;;;;;;6236519;23;19918;-79
2022/01/07 14:13:45;;;;;;;;;;;;;;;;;;6225492;23;19910;-79
2022/01/07 14:16:12;;;;;;;;;;;;;;;;;;6237483;23;19912;-77
2022/01/07 14:18:38;;;;;;;;;;;;;;;;;;6239185;23;19914;-78
2022/01/07 14:21:06;;;;;;;;;;;;;;;;;;6236811;23;19945;-80
2022/01/07 14:23:32;;;;;;;;;;;;;;;;;;6212334;23;19907;-79
2022/01/07 14:25:58;;;;;;;;;;;;;;;;;;6211124;23;19904;-80
2022/01/07 14:28:24;;;;;;;;;;;;;;;;;;6239252;23;19997;-80
2022/01/07 14:30:51;;;;;;;;;;;;;;;;;;6237667;23;19926;-81
2022/01/07 14:33:17;;;;;;;;;;;;;;;;;;6238785;23;20244;-81
2022/01/07 14:35:43;;;;;;;;;;;;;;;;;;6240284;23;19919;-81
2022/01/07 14:38:10;;;;;;;;;;;;;;;;;;6238547;23;20311;-78
2022/01/07 14:40:37;;;;;;;;;;;;;;;;;;6240144;23;19907;-79
2022/01/07 14:43:03;;;;;;;;;;;;;;;;;;6238880;23;20339;-80
2022/01/07 14:45:29;;;;;;;;;;;;;;;;;;6238690;23;19903;-80
2022/01/07 14:47:55;;;;;;;;;;;;;;;;;;6210459;23;19907;-80
2022/01/07 14:50:21;;;;;;;;;;;;;;;;;;6238623;22;19920;-81
2022/01/07 14:52:48;;;;;;;;;;;;;;;;;;6237751;23;20324;-80
2022/01/07 14:55:14;;;;;;;;;;;;;;;;;;6238415;23;20366;-78
2022/01/07 14:57:40;;;;;;;;;;;;;;;;;;6238565;23;19907;-78
2022/01/07 15:00:06;;;;;;;;;;;;;;;;;;6211565;23;19911;-77
2022/01/07 15:02:33;;;;;;;;;;;;;;;;;;6239354;23;19903;-78
2022/01/07 15:04:59;;;;;;;;;;;;;;;;;;6223116;23;19903;-77
2022/01/07 15:07:25;;;;;;;;;;;;;;;;;;6238978;23;19961;-78
2022/01/07 15:09:51;;;;;;;;;;;;;;;;;;6224222;23;19903;-78
2022/01/07 15:12:18;;;;;;;;;;;;;;;;;;6208648;23;20278;-77
2022/01/07 15:14:44;;;;;;;;;;;;;;;;;;6240064;23;19911;-80
2022/01/07 15:17:10;;;;;;;;;;;;;;;;;;6237388;23;20354;-80
2022/01/07 15:19:36;;;;;;;;;;;;;;;;;;6239955;23;19911;-80
2022/01/07 15:22:02;;;;;;;;;;;;;;;;;;6238347;23;19908;-79
2022/01/07 15:24:29;;;;;;;;;;;;;;;;;;6240214;23;20450;-75
2022/01/07 15:26:55;;;;;;;;;;;;;;;;;;6238166;23;19908;-80
2022/01/07 15:29:21;;;;;;;;;;;;;;;;;;6240265;23;19907;-79
2022/01/07 15:31:47;;;;;;;;;;;;;;;;;;6211754;23;19962;-78
2022/01/07 15:34:13;;;;;;;;;;;;;;;;;;6239839;23;19903;-79
2022/01/07 15:36:40;;;;;;;;;;;;;;;;;;6239671;23;20432;-80
2022/01/07 15:39:06;;;;;;;;;;;;;;;;;;6238606;23;19961;-79
2022/01/07 15:41:32;;;;;;;;;;;;;;;;;;6240428;23;19904;-80
2022/01/07 15:43:58;;;;;;;;;;;;;;;;;;6239163;23;19936;-79
2022/01/07 15:46:25;;;;;;;;;;;;;;;;;;6240227;23;19919;-79
2022/01/07 15:48:52;;;;;;;;;;;;;;;;;;6233897;22;19981;-79
2022/01/07 15:51:18;;;;;;;;;;;;;;;;;;6210709;23;19919;-79
2022/01/07 15:53:44;;;;;;;;;;;;;;;;;;6209398;23;20398;-80
2022/01/07 15:56:10;;;;;;;;;;;;;;;;;;6193670;23;19915;-79
2022/01/07 15:58:36;;;;;;;;;;;;;;;;;;6194232;23;20325;-82
2022/01/07 16:01:08;;;;;;;;;;;;;;;;;;6180833;23;20287;-79
2022/01/07 16:03:34;;;;;;;;;;;;;;;;;;6208717;23;20283;-79
2022/01/07 16:06:00;;;;;;;;;;;;;;;;;;6207937;23;20379;-80
2022/01/07 16:08:29;;;;;;;;;;;;;;;;;;6209838;23;20613;-79
2022/01/07 16:10:55;;;;;;;;;;;;;;;;;;6207530;23;19931;-80
2022/01/07 16:13:21;;;;;;;;;;;;;;;;;;6206465;23;19915;-80
2022/01/07 16:15:47;;;;;;;;;;;;;;;;;;6208508;23;19912;-77
2022/01/07 16:18:14;;;;;;;;;;;;;;;;;;6209666;23;20324;-80
2022/01/07 16:20:40;;;;;;;;;;;;;;;;;;6207957;23;19985;-80
2022/01/07 16:23:06;;;;;;;;;;;;;;;;;;6209019;23;20687;-80
2022/01/07 16:25:33;;;;;;;;;;;;;;;;;;6212761;23;19907;-79
2022/01/07 16:27:59;;;;;;;;;;;;;;;;;;6213372;23;19908;-80
2022/01/07 16:30:25;;;;;;;;;;;;;;;;;;6211003;23;19907;-79
2022/01/07 16:32:51;;;;;;;;;;;;;;;;;;6213677;23;19938;-79
2022/01/07 16:35:17;;;;;;;;;;;;;;;;;;6191416;23;19915;-79
2022/01/07 16:37:44;;;;;;;;;;;;;;;;;;6222774;23;19912;-80
2022/01/07 16:40:11;;;;;;;;;;;;;;;;;;6223973;23;19931;-78
2022/01/07 16:42:37;;;;;;;;;;;;;;;;;;6220065;23;19907;-78
2022/01/07 16:45:03;;;;;;;;;;;;;;;;;;6220012;23;19914;-80
2022/01/07 16:47:32;;;;;;;;;;;;;;;;;;6222465;23;19908;-77
2022/01/07 16:49:59;;;;;;;;;;;;;;;;;;6219705;23;19927;-80
2022/01/07 16:52:28;;;;;;;;;;;;;;;;;;6220825;23;19915;-79